createdAt,value
2023-03-16T00:01:49.453Z,99804.22
2023-03-16T00:04:17.115Z,99816.94
2023-03-16T00:06:44.478Z,99819.28
2023-03-16T00:09:11.822Z,99823.63
2023-03-16T00:11:39.442Z,99834.94
2023-03-16T00:14:06.819Z,99824.78
2023-03-16T00:16:35.349Z,99820.91
2023-03-16T00:19:06.068Z,99832.87
2023-03-16T00:21:35.225Z,99821.84
2023-03-16T00:24:04.144Z,99831.13
2023-03-16T00:26:31.973Z,99838.50
2023-03-16T00:28:59.500Z,99842.56
2023-03-16T00:31:27.428Z,99833.94
2023-03-16T00:33:54.787Z,99840.94
2023-03-16T00:36:22.776Z,99837.31
2023-03-16T00:38:50.454Z,99829.88
2023-03-16T00:41:17.806Z,99838.63
2023-03-16T00:43:46.778Z,99840.19
2023-03-16T00:46:16.207Z,99845.09
2023-03-16T00:48:45.143Z,99836.22
2023-03-16T00:51:14.824Z,99829.34
2023-03-16T00:53:43.285Z,99838.63
2023-03-16T00:56:10.799Z,99835.09
2023-03-16T00:58:39.066Z,99845.72
2023-03-16T01:01:08.587Z,99849.19
2023-03-16T01:03:36.188Z,99835.97
2023-03-16T01:06:10.206Z,99847.75
2023-03-16T01:08:38.706Z,99853.72
2023-03-16T01:11:07.552Z,99846.53
2023-03-16T01:13:34.899Z,99839.38
2023-03-16T01:16:04.005Z,99848.09
2023-03-16T01:18:34.216Z,99854.16
2023-03-16T01:21:03.601Z,99856.03
2023-03-16T01:23:32.783Z,99852.66
2023-03-16T01:26:00.295Z,99858.00
2023-03-16T01:28:29.571Z,99845.94
2023-03-16T01:31:00.372Z,99841.97
2023-03-16T01:33:28.325Z,99861.97
2023-03-16T01:35:56.896Z,99853.97
2023-03-16T01:38:25.246Z,99859.47
2023-03-16T01:40:53.879Z,99855.28
2023-03-16T01:43:22.591Z,99856.09
2023-03-16T01:46:18.311Z,99858.09
2023-03-16T01:48:58.392Z,99860.88
2023-03-16T01:51:33.990Z,99857.06
2023-03-16T01:54:08.411Z,99857.72
2023-03-16T01:56:45.477Z,99860.56
2023-03-16T01:59:14.754Z,99862.38
2023-03-16T02:01:42.323Z,99875.22
2023-03-16T02:04:17.142Z,99879.25
2023-03-16T02:06:44.643Z,99883.97
2023-03-16T02:09:12.470Z,99895.47
2023-03-16T02:11:39.878Z,99888.94
2023-03-16T02:14:09.529Z,99893.00
2023-03-16T02:16:37.351Z,99898.75
2023-03-16T02:19:07.057Z,99906.72
2023-03-16T02:21:56.128Z,99903.50
2023-03-16T02:24:24.067Z,99903.50
2023-03-16T02:26:59.611Z,99899.81
2023-03-16T02:29:49.199Z,99906.53
2023-03-16T02:32:17.303Z,99904.13
2023-03-16T02:34:44.891Z,99900.13
2023-03-16T02:37:13.070Z,99914.31
2023-03-16T02:39:44.009Z,99916.56
2023-03-16T02:42:13.042Z,99922.22
2023-03-16T02:44:43.686Z,99915.09
2023-03-16T02:47:16.605Z,99934.16
2023-03-16T02:49:45.159Z,99929.62
2023-03-16T02:52:12.579Z,99932.72
2023-03-16T02:54:40.055Z,99930.19
2023-03-16T02:57:09.389Z,99932.03
2023-03-16T02:59:36.875Z,99935.47
2023-03-16T03:02:04.365Z,99941.81
2023-03-16T03:04:33.102Z,99932.47
2023-03-16T03:07:04.770Z,99946.41
2023-03-16T03:09:33.240Z,99955.87
2023-03-16T03:12:00.649Z,99950.88
2023-03-16T03:14:28.595Z,99958.75
2023-03-16T03:16:56.294Z,99961.75
2023-03-16T03:19:23.645Z,99966.56
2023-03-16T03:21:51.538Z,99969.34
2023-03-16T03:24:19.142Z,99962.78
2023-03-16T03:26:47.472Z,99966.94
2023-03-16T03:29:16.010Z,99968.28
2023-03-16T03:31:43.807Z,99980.41
2023-03-16T03:34:11.761Z,99982.28
2023-03-16T03:36:39.193Z,99986.03
2023-03-16T03:39:07.194Z,99996.50
2023-03-16T03:41:34.883Z,99997.62
2023-03-16T03:44:02.440Z,99993.81
2023-03-16T03:46:30.268Z,99990.94
2023-03-16T03:49:03.614Z,99988.00
2023-03-16T03:51:32.964Z,99994.75
2023-03-16T03:54:00.752Z,100000.63
2023-03-16T03:56:28.883Z,100008.56
2023-03-16T03:58:56.796Z,100007.75
2023-03-16T04:01:24.989Z,100012.19
2023-03-16T04:03:52.661Z,100015.22
2023-03-16T04:06:20.610Z,100007.41
2023-03-16T04:08:47.982Z,100015.62
2023-03-16T04:11:15.749Z,100020.06
2023-03-16T04:13:43.540Z,100020.13
2023-03-16T04:16:11.094Z,100017.84
2023-03-16T04:18:39.065Z,100022.53
2023-03-16T04:21:07.431Z,100027.37
2023-03-16T04:23:34.860Z,100022.75
2023-03-16T04:26:03.862Z,100028.50
2023-03-16T04:28:32.671Z,100032.63
2023-03-16T04:31:07.609Z,100036.38
2023-03-16T04:33:36.053Z,100036.19
2023-03-16T04:36:04.210Z,100038.31
2023-03-16T04:38:35.342Z,100045.62
2023-03-16T04:41:03.787Z,100046.28
2023-03-16T04:43:34.468Z,100054.25
2023-03-16T04:46:03.200Z,100052.84
2023-03-16T04:48:32.643Z,100063.28
2023-03-16T04:51:01.429Z,100061.75
2023-03-16T04:53:31.910Z,100066.69
2023-03-16T04:55:59.885Z,100063.84
2023-03-16T04:58:27.284Z,100069.53
2023-03-16T05:00:58.044Z,100074.56
2023-03-16T05:03:25.992Z,100074.87
2023-03-16T05:05:53.496Z,100086.25
2023-03-16T05:08:21.794Z,100077.53
2023-03-16T05:10:49.637Z,100079.50
2023-03-16T05:13:17.139Z,100083.63
2023-03-16T05:15:45.335Z,100090.03
2023-03-16T05:18:13.144Z,100093.56
2023-03-16T05:20:41.200Z,100090.12
2023-03-16T05:23:09.284Z,100090.59
2023-03-16T05:25:36.875Z,100090.84
2023-03-16T05:28:05.480Z,100089.66
2023-03-16T05:30:33.676Z,100092.13
2023-03-16T05:33:01.706Z,100091.44
2023-03-16T05:35:29.459Z,100086.50
2023-03-16T05:37:58.430Z,100082.50
2023-03-16T05:40:26.533Z,100093.66
2023-03-16T05:42:55.450Z,100092.50
2023-03-16T05:45:23.624Z,100097.41
2023-03-16T05:47:51.846Z,100095.78
2023-03-16T05:50:19.343Z,100100.78
2023-03-16T05:52:48.291Z,100103.50
2023-03-16T05:55:16.650Z,100109.84
2023-03-16T05:57:44.492Z,100116.09
2023-03-16T06:00:14.528Z,100123.09
2023-03-16T06:02:44.071Z,100119.34
2023-03-16T06:05:11.482Z,100123.03
2023-03-16T06:07:41.572Z,100125.47
2023-03-16T06:10:10.234Z,100125.94
2023-03-16T06:12:38.306Z,100134.97
2023-03-16T06:15:10.308Z,100128.44
2023-03-16T06:17:38.519Z,100132.72
2023-03-16T06:20:11.130Z,100140.91
2023-03-16T06:22:40.198Z,100145.69
2023-03-16T06:25:08.062Z,100160.13
2023-03-16T06:27:38.518Z,100150.16
2023-03-16T06:30:07.375Z,100161.88
2023-03-16T06:32:36.061Z,100175.09
2023-03-16T06:35:04.098Z,100162.41
2023-03-16T06:37:32.400Z,100168.72
2023-03-16T06:40:00.641Z,100160.84
2023-03-16T06:42:28.947Z,100174.19
2023-03-16T06:44:57.910Z,100176.06
2023-03-16T06:47:26.030Z,100175.53
2023-03-16T06:49:55.340Z,100189.75
2023-03-16T06:52:24.726Z,100190.25
2023-03-16T06:54:52.195Z,100196.94
2023-03-16T06:57:19.865Z,100190.69
2023-03-16T06:59:47.534Z,100199.31
2023-03-16T07:02:15.302Z,100198.97
2023-03-16T07:04:43.248Z,100201.06
2023-03-16T07:07:11.764Z,100203.69
2023-03-16T07:09:41.660Z,100205.31
2023-03-16T07:12:09.820Z,100207.03
2023-03-16T07:14:38.036Z,100213.31
2023-03-16T07:17:05.530Z,100210.16
2023-03-16T07:19:33.139Z,100213.63
2023-03-16T07:22:02.779Z,100225.09
2023-03-16T07:24:32.801Z,100225.50
2023-03-16T07:27:00.196Z,100228.09
2023-03-16T07:29:28.592Z,100247.28
2023-03-16T07:31:56.343Z,100246.81
2023-03-16T07:34:24.249Z,100241.91
2023-03-16T07:36:52.987Z,100246.94
2023-03-16T07:39:21.562Z,100245.16
2023-03-16T07:41:51.349Z,100236.78
2023-03-16T07:44:19.158Z,100242.00
2023-03-16T07:46:47.151Z,100247.84
2023-03-16T07:49:16.727Z,100241.56
2023-03-16T07:51:44.929Z,100246.94
2023-03-16T07:54:13.948Z,100251.25
2023-03-16T07:56:48.990Z,100251.91
2023-03-16T07:59:20.447Z,100245.78
2023-03-16T08:01:48.966Z,100250.56
2023-03-16T08:04:19.353Z,100256.00
2023-03-16T08:06:47.932Z,100237.19
2023-03-16T08:09:15.425Z,100245.09
2023-03-16T08:11:43.741Z,100252.41
2023-03-16T08:14:11.192Z,100254.41
2023-03-16T08:16:39.876Z,100254.16
2023-03-16T08:19:07.610Z,100255.59
2023-03-16T08:21:45.771Z,100252.78
2023-03-16T08:24:21.123Z,100258.38
2023-03-16T08:26:48.517Z,100258.91
2023-03-16T08:29:17.208Z,100262.34
2023-03-16T08:31:45.220Z,100254.66
2023-03-16T08:34:12.722Z,100266.81
2023-03-16T08:36:43.810Z,100267.41
2023-03-16T08:39:12.197Z,100269.75
2023-03-16T08:41:40.965Z,100256.91
2023-03-16T08:44:10.736Z,100248.41
2023-03-16T08:46:39.318Z,100248.88
2023-03-16T08:49:06.970Z,100243.50
2023-03-16T08:51:34.417Z,100248.50
2023-03-16T08:54:01.998Z,100252.84
2023-03-16T08:56:30.501Z,100258.72
2023-03-16T08:58:58.478Z,100256.12
2023-03-16T09:01:26.817Z,100246.50
2023-03-16T09:03:55.039Z,100243.97
2023-03-16T09:06:22.538Z,100251.09
2023-03-16T09:08:50.185Z,100247.00
2023-03-16T09:11:18.824Z,100247.63
2023-03-16T09:13:46.353Z,100249.97
2023-03-16T09:16:15.274Z,100249.12
2023-03-16T09:18:42.747Z,100256.38
2023-03-16T09:21:10.461Z,100250.81
2023-03-16T09:23:38.098Z,100251.66
2023-03-16T09:26:07.657Z,100252.72
2023-03-16T09:28:35.950Z,100251.50
2023-03-16T09:31:03.662Z,100255.44
2023-03-16T09:33:32.102Z,100254.53
2023-03-16T09:35:59.604Z,100253.28
2023-03-16T09:38:27.661Z,100245.34
2023-03-16T09:41:29.533Z,100261.53
2023-03-16T09:44:18.524Z,100268.84
2023-03-16T09:46:46.393Z,100264.88
2023-03-16T09:49:16.619Z,100253.34
2023-03-16T09:52:09.049Z,100259.38
2023-03-16T09:54:59.801Z,100248.00
2023-03-16T09:57:29.781Z,100253.22
2023-03-16T10:00:07.540Z,100251.63
2023-03-16T10:02:56.009Z,100257.16
2023-03-16T10:05:23.892Z,100258.34
2023-03-16T10:08:14.010Z,100264.13
2023-03-16T10:11:02.975Z,100262.84
2023-03-16T10:13:55.041Z,100270.53
2023-03-16T10:16:30.868Z,100271.28
2023-03-16T10:19:02.429Z,100273.38
2023-03-16T10:21:30.596Z,100257.72
2023-03-16T10:23:58.864Z,100268.91
2023-03-16T10:26:31.651Z,100271.31
2023-03-16T10:29:01.162Z,100263.91
2023-03-16T10:31:29.426Z,100262.72
2023-03-16T10:34:02.705Z,100260.59
2023-03-16T10:36:35.053Z,100263.69
2023-03-16T10:39:10.792Z,100262.53
2023-03-16T10:41:43.228Z,100267.72
2023-03-16T10:44:17.002Z,100255.84
2023-03-16T10:46:50.110Z,100259.06
2023-03-16T10:49:27.428Z,100259.19
2023-03-16T10:51:57.211Z,100256.22
2023-03-16T10:54:33.601Z,100269.59
2023-03-16T10:57:02.130Z,100257.00
2023-03-16T10:59:34.529Z,100244.63
2023-03-16T11:02:03.749Z,100254.31
2023-03-16T11:04:33.016Z,100256.47
2023-03-16T11:07:00.383Z,100250.69
2023-03-16T11:09:34.187Z,100252.38
2023-03-16T11:12:15.519Z,100251.25
2023-03-16T11:14:44.464Z,100259.41
2023-03-16T11:17:34.893Z,100257.47
2023-03-16T11:20:14.879Z,100246.87
2023-03-16T11:22:42.287Z,100242.59
2023-03-16T11:25:14.315Z,100242.62
2023-03-16T11:27:54.219Z,100250.47
2023-03-16T11:30:35.281Z,100242.31
2023-03-16T11:33:04.191Z,100229.84
2023-03-16T11:35:58.406Z,100234.22
2023-03-16T11:38:44.972Z,100221.91
2023-03-16T11:41:25.822Z,100213.59
2023-03-16T11:43:56.918Z,100214.53
2023-03-16T11:46:28.589Z,100210.28
2023-03-16T11:49:02.097Z,100203.72
2023-03-16T11:51:33.404Z,100216.06
2023-03-16T11:54:11.271Z,100212.75
2023-03-16T11:56:58.204Z,100227.31
2023-03-16T11:59:28.494Z,100220.63
2023-03-16T12:02:05.435Z,100225.41
2023-03-16T12:04:59.724Z,100223.47
2023-03-16T12:07:42.958Z,100213.97
2023-03-16T12:10:24.176Z,100207.53
2023-03-16T12:12:57.131Z,100212.34
2023-03-16T12:15:45.111Z,100216.41
2023-03-16T12:18:16.144Z,100206.25
2023-03-16T12:20:56.408Z,100199.22
2023-03-16T12:23:43.248Z,100214.38
2023-03-16T12:26:12.419Z,100202.97
2023-03-16T12:28:41.042Z,100203.59
2023-03-16T12:31:13.915Z,100204.28
2023-03-16T12:33:53.439Z,100198.72
2023-03-16T12:36:55.990Z,100191.97
2023-03-16T12:39:40.649Z,100215.16
2023-03-16T12:42:27.062Z,100223.31
2023-03-16T12:44:57.427Z,100206.09
2023-03-16T12:47:44.000Z,100204.09
2023-03-16T12:50:13.619Z,100192.47
2023-03-16T12:52:48.859Z,100193.28
2023-03-16T12:55:23.578Z,100184.69
2023-03-16T12:57:51.611Z,100198.44
2023-03-16T13:00:19.754Z,100198.72
2023-03-16T13:02:53.210Z,100214.41
2023-03-16T13:05:34.646Z,100200.88
2023-03-16T13:08:13.636Z,100231.31
2023-03-16T13:10:41.333Z,100213.91
2023-03-16T13:13:11.368Z,100217.13
2023-03-16T13:15:39.803Z,100198.66
2023-03-16T13:18:10.436Z,100196.13
2023-03-16T13:20:57.928Z,100199.31
2023-03-16T13:23:49.684Z,100209.19
2023-03-16T13:26:19.900Z,100214.91
2023-03-16T13:28:51.300Z,100213.87
2023-03-16T13:31:25.746Z,100226.59
2023-03-16T13:33:55.830Z,100209.53
2023-03-16T13:36:25.361Z,100201.91
2023-03-16T13:39:14.337Z,100211.72
2023-03-16T13:41:43.367Z,100208.59
2023-03-16T13:44:13.989Z,100199.63
2023-03-16T13:46:41.363Z,100213.41
2023-03-16T13:49:11.973Z,100202.38
2023-03-16T13:51:39.842Z,100217.28
2023-03-16T13:54:21.717Z,100212.50
2023-03-16T13:56:50.756Z,100205.19
2023-03-16T13:59:18.469Z,100205.53
2023-03-16T14:01:46.196Z,100211.91
2023-03-16T14:04:15.892Z,100222.81
2023-03-16T14:06:51.998Z,100217.75
2023-03-16T14:09:21.762Z,100205.34
2023-03-16T14:11:49.203Z,100200.56
2023-03-16T14:14:17.963Z,100202.84
2023-03-16T14:16:45.741Z,100209.19
2023-03-16T14:19:17.397Z,100209.06
2023-03-16T14:21:45.868Z,100218.16
2023-03-16T14:24:30.855Z,100222.38
2023-03-16T14:26:58.396Z,100213.06
2023-03-16T14:29:28.431Z,100223.81
2023-03-16T14:31:56.049Z,100223.25
2023-03-16T14:34:26.063Z,100218.38
2023-03-16T14:36:53.823Z,100209.19
2023-03-16T14:39:21.507Z,100239.53
2023-03-16T14:41:49.870Z,100235.56
2023-03-16T14:44:25.150Z,100214.59
2023-03-16T14:46:53.948Z,100215.03
2023-03-16T14:49:25.341Z,100222.75
2023-03-16T14:51:53.833Z,100214.09
2023-03-16T14:54:22.418Z,100227.00
2023-03-16T14:56:51.690Z,100247.63
2023-03-16T14:59:19.263Z,100234.91
2023-03-16T15:01:46.909Z,100243.84
2023-03-16T15:04:15.741Z,100237.53
2023-03-16T15:06:43.079Z,100227.56
2023-03-16T15:09:37.965Z,100228.97
2023-03-16T15:12:16.107Z,100232.63
2023-03-16T15:15:02.104Z,100218.75
2023-03-16T15:17:29.730Z,100215.47
2023-03-16T15:19:57.106Z,100244.91
2023-03-16T15:22:29.087Z,100233.84
2023-03-16T15:24:57.418Z,100234.03
2023-03-16T15:27:27.828Z,100235.41
2023-03-16T15:29:55.152Z,100245.44
2023-03-16T15:32:22.806Z,100243.81
2023-03-16T15:34:50.160Z,100246.25
2023-03-16T15:37:17.656Z,100259.38
2023-03-16T15:39:48.449Z,100250.84
2023-03-16T15:42:17.057Z,100248.53
2023-03-16T15:44:45.497Z,100256.12
2023-03-16T15:47:13.016Z,100263.25
2023-03-16T15:49:47.547Z,100256.50
2023-03-16T15:52:36.713Z,100263.00
2023-03-16T15:55:07.913Z,100266.19
2023-03-16T15:57:35.641Z,100264.06
2023-03-16T16:00:03.340Z,100264.25
2023-03-16T16:02:32.326Z,100261.63
2023-03-16T16:04:59.936Z,100269.19
2023-03-16T16:07:27.462Z,100274.72
2023-03-16T16:09:54.912Z,100278.22
2023-03-16T16:12:26.994Z,100274.50
2023-03-16T16:14:56.214Z,100283.19
2023-03-16T16:17:36.582Z,100284.16
2023-03-16T16:20:23.462Z,100277.87
2023-03-16T16:22:52.032Z,100291.50
2023-03-16T16:25:21.308Z,100292.81
2023-03-16T16:27:49.053Z,100293.59
2023-03-16T16:30:26.505Z,100302.22
2023-03-16T16:32:54.129Z,100302.56
2023-03-16T16:35:25.126Z,100306.53
2023-03-16T16:37:52.634Z,100310.47
2023-03-16T16:40:24.178Z,100313.50
2023-03-16T16:42:52.927Z,100326.31
2023-03-16T16:45:21.845Z,100325.16
2023-03-16T16:47:52.197Z,100330.09
2023-03-16T16:50:25.545Z,100333.25
2023-03-16T16:52:53.441Z,100345.87
2023-03-16T16:55:22.174Z,100341.09
2023-03-16T16:57:49.965Z,100343.06
2023-03-16T17:00:23.774Z,100339.56
2023-03-16T17:02:53.543Z,100356.13
2023-03-16T17:05:25.762Z,100344.91
2023-03-16T17:07:53.519Z,100356.03
2023-03-16T17:10:27.419Z,100357.59
2023-03-16T17:12:56.025Z,100364.28
2023-03-16T17:15:30.381Z,100358.59
2023-03-16T17:18:03.036Z,100359.25
2023-03-16T17:20:31.163Z,100363.00
2023-03-16T17:22:58.828Z,100371.12
2023-03-16T17:25:26.213Z,100379.13
2023-03-16T17:27:54.330Z,100371.56
2023-03-16T17:30:28.722Z,100364.47
2023-03-16T17:32:59.428Z,100376.88
2023-03-16T17:35:27.191Z,100372.00
2023-03-16T17:37:54.649Z,100375.66
2023-03-16T17:40:25.186Z,100380.75
2023-03-16T17:42:53.181Z,100379.59
2023-03-16T17:45:22.571Z,100377.31
2023-03-16T17:47:50.249Z,100386.88
2023-03-16T17:50:24.552Z,100380.22
2023-03-16T17:52:52.781Z,100385.34
2023-03-16T17:55:22.712Z,100393.88
2023-03-16T17:57:51.913Z,100395.09
2023-03-16T18:00:23.849Z,100395.72
2023-03-16T18:03:19.300Z,100401.97
2023-03-16T18:05:46.678Z,100397.56
2023-03-16T18:08:27.134Z,100406.09
2023-03-16T18:11:05.664Z,100407.78
2023-03-16T18:13:35.095Z,100412.75
2023-03-16T18:16:02.928Z,100415.88
2023-03-16T18:18:31.652Z,100412.81
2023-03-16T18:21:00.576Z,100418.03
2023-03-16T18:23:29.877Z,100420.94
2023-03-16T18:26:02.123Z,100415.88
2023-03-16T18:28:31.263Z,100426.41
2023-03-16T18:30:59.254Z,100429.03
2023-03-16T18:33:36.478Z,100432.09
2023-03-16T18:36:06.706Z,100431.28
2023-03-16T18:38:39.318Z,100430.28
2023-03-16T18:41:28.844Z,100431.94
2023-03-16T18:43:57.825Z,100435.31
2023-03-16T18:46:26.572Z,100436.00
2023-03-16T18:48:55.913Z,100437.41
2023-03-16T18:51:23.706Z,100443.53
2023-03-16T18:53:51.439Z,100449.00
2023-03-16T18:56:26.907Z,100447.59
2023-03-16T18:58:55.356Z,100458.72
2023-03-16T19:01:30.084Z,100465.03
2023-03-16T19:03:58.492Z,100469.31
2023-03-16T19:06:29.614Z,100466.50
2023-03-16T19:09:06.053Z,100466.41
2023-03-16T19:11:33.962Z,100475.44
2023-03-16T19:14:01.432Z,100474.19
2023-03-16T19:16:28.879Z,100483.81
2023-03-16T19:18:56.543Z,100484.94
2023-03-16T19:21:24.909Z,100514.13
2023-03-16T19:23:55.846Z,100516.50
2023-03-16T19:26:23.493Z,100520.19
2023-03-16T19:28:50.859Z,100525.69
2023-03-16T19:31:20.376Z,100520.47
2023-03-16T19:33:48.320Z,100530.19
2023-03-16T19:36:17.715Z,100526.00
2023-03-16T19:38:46.470Z,100532.72
2023-03-16T19:41:34.400Z,100535.47
2023-03-16T19:44:08.479Z,100533.16
2023-03-16T19:46:36.211Z,100544.44
2023-03-16T19:49:03.593Z,100553.88
2023-03-16T19:51:32.262Z,100544.56
2023-03-16T19:54:01.370Z,100543.59
2023-03-16T19:56:28.930Z,100543.16
2023-03-16T19:58:56.325Z,100548.03
2023-03-16T20:01:30.336Z,100549.44
2023-03-16T20:03:59.733Z,100556.41
2023-03-16T20:06:27.230Z,100561.38
2023-03-16T20:08:54.715Z,100575.25
2023-03-16T20:11:27.641Z,100573.75
2023-03-16T20:13:55.011Z,100580.53
2023-03-16T20:16:30.006Z,100576.84
2023-03-16T20:18:58.883Z,100577.62
2023-03-16T20:21:26.697Z,100576.16
2023-03-16T20:23:54.163Z,100573.69
2023-03-16T20:26:31.714Z,100574.69
2023-03-16T20:28:59.963Z,100577.38
2023-03-16T20:31:31.275Z,100585.63
2023-03-16T20:33:58.992Z,100578.66
2023-03-16T20:36:26.630Z,100597.16
2023-03-16T20:38:53.977Z,100588.00
2023-03-16T20:41:26.685Z,100590.91
2023-03-16T20:43:54.866Z,100595.97
2023-03-16T20:46:28.727Z,100591.12
2023-03-16T20:48:56.183Z,100592.56
2023-03-16T20:51:24.653Z,100595.22
2023-03-16T20:53:52.506Z,100597.56
2023-03-16T20:56:21.305Z,100590.28
2023-03-16T20:58:49.915Z,100594.13
2023-03-16T21:01:18.793Z,100596.75
2023-03-16T21:03:49.009Z,100603.97
2023-03-16T21:06:25.025Z,100600.44
2023-03-16T21:08:53.032Z,100604.75
2023-03-16T21:11:48.073Z,100602.81
2023-03-16T21:14:17.664Z,100606.44
2023-03-16T21:16:45.400Z,100612.88
2023-03-16T21:19:14.473Z,100603.31
2023-03-16T21:21:41.989Z,100611.06
2023-03-16T21:24:09.639Z,100619.53
2023-03-16T21:26:37.413Z,100607.81
2023-03-16T21:29:08.206Z,100616.81
2023-03-16T21:31:36.170Z,100618.72
2023-03-16T21:34:05.601Z,100618.94
2023-03-16T21:36:32.993Z,100617.19
2023-03-16T21:39:00.644Z,100626.31
2023-03-16T21:41:28.282Z,100629.03
2023-03-16T21:43:55.945Z,100633.37
2023-03-16T21:46:23.856Z,100624.69
2023-03-16T21:48:53.144Z,100625.84
2023-03-16T21:51:26.353Z,100622.59
2023-03-16T21:53:54.011Z,100621.03
2023-03-16T21:56:22.882Z,100628.56
2023-03-16T21:58:50.282Z,100622.28
2023-03-16T22:01:20.530Z,100622.94
2023-03-16T22:03:51.309Z,100625.72
2023-03-16T22:06:19.786Z,100631.91
2023-03-16T22:08:47.154Z,100628.34
2023-03-16T22:11:16.742Z,100636.97
2023-03-16T22:13:44.087Z,100637.28
2023-03-16T22:16:16.322Z,100655.62
2023-03-16T22:18:45.049Z,100650.72
2023-03-16T22:21:32.994Z,100643.28
2023-03-16T22:24:01.164Z,100642.91
2023-03-16T22:26:29.195Z,100639.31
2023-03-16T22:28:56.618Z,100644.31
2023-03-16T22:31:30.139Z,100641.09
2023-03-16T22:33:57.557Z,100642.22
2023-03-16T22:36:25.152Z,100645.66
2023-03-16T22:39:00.232Z,100643.31
2023-03-16T22:41:28.586Z,100643.94
2023-03-16T22:43:55.948Z,100645.91
2023-03-16T22:46:24.905Z,100640.16
2023-03-16T22:48:53.179Z,100647.06
2023-03-16T22:51:29.033Z,100649.72
2023-03-16T22:53:59.843Z,100649.75
2023-03-16T22:56:27.241Z,100649.75
2023-03-16T22:58:56.230Z,100651.66
2023-03-16T23:01:36.472Z,100644.22
2023-03-16T23:04:03.863Z,100645.62
2023-03-16T23:06:35.108Z,100650.22
2023-03-16T23:09:02.479Z,100657.34
2023-03-16T23:11:33.615Z,100657.84
2023-03-16T23:14:01.306Z,100658.31
2023-03-16T23:16:35.812Z,100658.34
2023-03-16T23:19:18.726Z,100668.47
2023-03-16T23:21:46.462Z,100670.53
2023-03-16T23:24:14.093Z,100668.34
2023-03-16T23:26:41.460Z,100663.50
2023-03-16T23:29:09.810Z,100669.00
2023-03-16T23:31:37.636Z,100667.87
2023-03-16T23:34:12.338Z,100664.47
2023-03-16T23:36:40.007Z,100663.31
2023-03-16T23:39:07.573Z,100664.19
2023-03-16T23:41:34.966Z,100666.84
2023-03-16T23:44:03.664Z,100664.72
2023-03-16T23:46:31.070Z,100670.56
2023-03-16T23:48:58.628Z,100674.41
2023-03-16T23:51:28.154Z,100675.56
2023-03-16T23:53:55.759Z,100679.72
2023-03-16T23:56:23.318Z,100679.25
2023-03-16T23:58:51.114Z,100674.63
